sensor_id;sensor_type;location;lat;lon;timestamp;P1;durP1;ratioP1;P2;durP2;ratioP2
6999;SDS011;3540;53.242;10.408;2023-11-22T00:01:20;7.10;;;4.93;;
6999;SDS011;3540;53.242;10.408;2023-11-22T00:03:46;7.70;;;4.80;;
6999;SDS011;3540;53.242;10.408;2023-11-22T00:06:11;6.10;;;4.50;;
6999;SDS011;3540;53.242;10.408;2023-11-22T00:08:37;7.47;;;4.40;;
6999;SDS011;3540;53.242;10.408;2023-11-22T00:11:03;6.53;;;4.27;;
6999;SDS011;3540;53.242;10.408;2023-11-22T00:13:30;8.07;;;4.47;;
6999;SDS011;3540;53.242;10.408;2023-11-22T00:15:57;6.30;;;4.90;;
6999;SDS011;3540;53.242;10.408;2023-11-22T00:18:22;7.20;;;4.20;;
6999;SDS011;3540;53.242;10.408;2023-11-22T00:20:49;6.67;;;4.90;;
6999;SDS011;3540;53.242;10.408;2023-11-22T00:23:15;5.63;;;4.20;;
6999;SDS011;3540;53.242;10.408;2023-11-22T00:25:40;6.73;;;4.03;;
6999;SDS011;3540;53.242;10.408;2023-11-22T00:28:06;6.50;;;4.73;;
6999;SDS011;3540;53.242;10.408;2023-11-22T00:30:32;5.63;;;4.07;;
6999;SDS011;3540;53.242;10.408;2023-11-22T00:32:57;6.53;;;4.10;;
6999;SDS011;3540;53.242;10.408;2023-11-22T00:35:23;7.27;;;4.63;;
6999;SDS011;3540;53.242;10.408;2023-11-22T00:37:49;6.70;;;4.47;;
6999;SDS011;3540;53.242;10.408;2023-11-22T00:40:14;6.37;;;4.60;;
6999;SDS011;3540;53.242;10.408;2023-11-22T00:42:40;5.43;;;4.37;;
6999;SDS011;3540;53.242;10.408;2023-11-22T00:45:07;7.10;;;4.37;;
6999;SDS011;3540;53.242;10.408;2023-11-22T00:47:34;10.90;;;4.67;;
6999;SDS011;3540;53.242;10.408;2023-11-22T00:50:01;6.80;;;4.53;;
6999;SDS011;3540;53.242;10.408;2023-11-22T00:52:29;7.97;;;4.70;;
6999;SDS011;3540;53.242;10.408;2023-11-22T00:54:54;7.07;;;4.83;;
6999;SDS011;3540;53.242;10.408;2023-11-22T00:57:20;6.20;;;4.77;;
6999;SDS011;3540;53.242;10.408;2023-11-22T00:59:45;8.80;;;4.67;;
6999;SDS011;3540;53.242;10.408;2023-11-22T01:02:11;8.07;;;5.00;;
6999;SDS011;3540;53.242;10.408;2023-11-22T01:04:37;7.10;;;4.90;;
6999;SDS011;3540;53.242;10.408;2023-11-22T01:07:03;7.20;;;4.90;;
6999;SDS011;3540;53.242;10.408;2023-11-22T01:09:32;5.97;;;4.57;;
6999;SDS011;3540;53.242;10.408;2023-11-22T01:11:58;7.90;;;4.73;;
6999;SDS011;3540;53.242;10.408;2023-11-22T01:14:24;9.30;;;5.23;;
6999;SDS011;3540;53.242;10.408;2023-11-22T01:16:51;9.23;;;5.30;;
6999;SDS011;3540;53.242;10.408;2023-11-22T01:19:17;8.60;;;5.27;;
6999;SDS011;3540;53.242;10.408;2023-11-22T01:21:42;9.73;;;5.70;;
6999;SDS011;3540;53.242;10.408;2023-11-22T01:24:08;8.30;;;5.40;;
6999;SDS011;3540;53.242;10.408;2023-11-22T01:26:34;9.33;;;5.40;;
6999;SDS011;3540;53.242;10.408;2023-11-22T01:29:00;8.83;;;5.87;;
6999;SDS011;3540;53.242;10.408;2023-11-22T01:31:27;9.77;;;5.97;;
6999;SDS011;3540;53.242;10.408;2023-11-22T01:33:53;9.87;;;5.60;;
6999;SDS011;3540;53.242;10.408;2023-11-22T01:36:19;10.30;;;5.40;;
6999;SDS011;3540;53.242;10.408;2023-11-22T01:38:45;7.63;;;5.63;;
6999;SDS011;3540;53.242;10.408;2023-11-22T01:41:11;8.93;;;5.50;;
6999;SDS011;3540;53.242;10.408;2023-11-22T01:43:38;10.07;;;5.60;;
6999;SDS011;3540;53.242;10.408;2023-11-22T01:46:07;9.33;;;5.30;;
6999;SDS011;3540;53.242;10.408;2023-11-22T01:48:35;9.97;;;5.53;;
6999;SDS011;3540;53.242;10.408;2023-11-22T01:51:01;7.97;;;5.23;;
6999;SDS011;3540;53.242;10.408;2023-11-22T01:53:28;9.07;;;5.27;;
6999;SDS011;3540;53.242;10.408;2023-11-22T01:55:56;10.20;;;5.77;;
6999;SDS011;3540;53.242;10.408;2023-11-22T01:58:22;7.53;;;5.37;;
6999;SDS011;3540;53.242;10.408;2023-11-22T02:00:49;8.50;;;5.37;;
6999;SDS011;3540;53.242;10.408;2023-11-22T02:03:16;10.73;;;5.60;;
6999;SDS011;3540;53.242;10.408;2023-11-22T02:05:42;9.47;;;6.07;;
6999;SDS011;3540;53.242;10.408;2023-11-22T02:08:09;9.33;;;5.90;;
6999;SDS011;3540;53.242;10.408;2023-11-22T02:10:35;9.73;;;5.63;;
6999;SDS011;3540;53.242;10.408;2023-11-22T02:13:04;7.00;;;5.17;;
6999;SDS011;3540;53.242;10.408;2023-11-22T02:15:32;6.20;;;5.17;;
6999;SDS011;3540;53.242;10.408;2023-11-22T02:18:02;9.07;;;4.97;;
6999;SDS011;3540;53.242;10.408;2023-11-22T02:20:28;10.70;;;5.50;;
6999;SDS011;3540;53.242;10.408;2023-11-22T02:22:55;9.17;;;5.37;;
6999;SDS011;3540;53.242;10.408;2023-11-22T02:25:22;8.53;;;5.03;;
6999;SDS011;3540;53.242;10.408;2023-11-22T02:27:48;8.17;;;5.50;;
6999;SDS011;3540;53.242;10.408;2023-11-22T02:30:13;12.23;;;5.63;;
6999;SDS011;3540;53.242;10.408;2023-11-22T02:32:40;7.37;;;5.30;;
6999;SDS011;3540;53.242;10.408;2023-11-22T02:35:06;6.20;;;4.87;;
6999;SDS011;3540;53.242;10.408;2023-11-22T02:37:33;9.70;;;5.27;;
6999;SDS011;3540;53.242;10.408;2023-11-22T02:40:14;8.67;;;5.50;;
6999;SDS011;3540;53.242;10.408;2023-11-22T02:42:43;8.30;;;4.87;;
6999;SDS011;3540;53.242;10.408;2023-11-22T02:45:08;7.37;;;5.20;;
6999;SDS011;3540;53.242;10.408;2023-11-22T02:47:34;9.53;;;5.50;;
6999;SDS011;3540;53.242;10.408;2023-11-22T02:50:01;6.60;;;4.90;;
6999;SDS011;3540;53.242;10.408;2023-11-22T02:52:30;7.00;;;4.73;;
6999;SDS011;3540;53.242;10.408;2023-11-22T02:54:56;7.57;;;5.10;;
6999;SDS011;3540;53.242;10.408;2023-11-22T02:57:21;9.27;;;5.83;;
6999;SDS011;3540;53.242;10.408;2023-11-22T02:59:47;9.03;;;5.40;;
6999;SDS011;3540;53.242;10.408;2023-11-22T03:02:13;7.37;;;5.17;;
6999;SDS011;3540;53.242;10.408;2023-11-22T03:04:41;6.83;;;4.70;;
6999;SDS011;3540;53.242;10.408;2023-11-22T03:07:07;6.87;;;5.10;;
6999;SDS011;3540;53.242;10.408;2023-11-22T03:09:33;11.27;;;5.33;;
6999;SDS011;3540;53.242;10.408;2023-11-22T03:11:59;7.53;;;5.00;;
6999;SDS011;3540;53.242;10.408;2023-11-22T03:14:25;8.67;;;5.10;;
6999;SDS011;3540;53.242;10.408;2023-11-22T03:16:50;7.20;;;5.37;;
6999;SDS011;3540;53.242;10.408;2023-11-22T03:19:16;10.83;;;5.50;;
6999;SDS011;3540;53.242;10.408;2023-11-22T03:21:42;9.63;;;5.33;;
6999;SDS011;3540;53.242;10.408;2023-11-22T03:24:09;7.53;;;5.07;;
6999;SDS011;3540;53.242;10.408;2023-11-22T03:26:35;9.07;;;5.67;;
6999;SDS011;3540;53.242;10.408;2023-11-22T03:29:01;6.83;;;5.10;;
6999;SDS011;3540;53.242;10.408;2023-11-22T03:31:27;7.87;;;5.47;;
6999;SDS011;3540;53.242;10.408;2023-11-22T03:33:53;8.07;;;5.20;;
6999;SDS011;3540;53.242;10.408;2023-11-22T03:36:19;10.43;;;5.17;;
6999;SDS011;3540;53.242;10.408;2023-11-22T03:38:46;7.50;;;5.00;;
6999;SDS011;3540;53.242;10.408;2023-11-22T03:41:11;8.83;;;5.50;;
6999;SDS011;3540;53.242;10.408;2023-11-22T03:43:37;7.97;;;5.50;;
6999;SDS011;3540;53.242;10.408;2023-11-22T03:46:03;9.50;;;5.17;;
6999;SDS011;3540;53.242;10.408;2023-11-22T03:48:28;9.40;;;4.90;;
6999;SDS011;3540;53.242;10.408;2023-11-22T03:50:54;8.30;;;5.30;;
6999;SDS011;3540;53.242;10.408;2023-11-22T03:53:19;11.07;;;5.50;;
6999;SDS011;3540;53.242;10.408;2023-11-22T03:55:46;8.77;;;5.00;;
6999;SDS011;3540;53.242;10.408;2023-11-22T03:58:13;8.03;;;5.30;;
6999;SDS011;3540;53.242;10.408;2023-11-22T04:00:38;8.57;;;5.13;;
6999;SDS011;3540;53.242;10.408;2023-11-22T04:03:04;8.93;;;5.63;;
6999;SDS011;3540;53.242;10.408;2023-11-22T04:05:29;8.13;;;5.33;;
6999;SDS011;3540;53.242;10.408;2023-11-22T04:07:55;11.23;;;5.50;;
6999;SDS011;3540;53.242;10.408;2023-11-22T04:10:21;8.40;;;4.97;;
6999;SDS011;3540;53.242;10.408;2023-11-22T04:12:47;7.53;;;5.33;;
6999;SDS011;3540;53.242;10.408;2023-11-22T04:15:14;8.13;;;5.27;;
6999;SDS011;3540;53.242;10.408;2023-11-22T04:17:40;9.80;;;5.43;;
6999;SDS011;3540;53.242;10.408;2023-11-22T04:20:06;7.90;;;4.93;;
6999;SDS011;3540;53.242;10.408;2023-11-22T04:22:35;13.07;;;5.93;;
6999;SDS011;3540;53.242;10.408;2023-11-22T04:25:10;7.67;;;5.60;;
6999;SDS011;3540;53.242;10.408;2023-11-22T04:27:38;7.27;;;5.37;;
6999;SDS011;3540;53.242;10.408;2023-11-22T04:30:05;9.63;;;5.60;;
6999;SDS011;3540;53.242;10.408;2023-11-22T04:32:33;7.93;;;5.43;;
6999;SDS011;3540;53.242;10.408;2023-11-22T04:35:01;7.07;;;4.87;;
6999;SDS011;3540;53.242;10.408;2023-11-22T04:37:29;9.77;;;5.10;;
6999;SDS011;3540;53.242;10.408;2023-11-22T04:39:57;8.57;;;5.20;;
6999;SDS011;3540;53.242;10.408;2023-11-22T04:42:23;9.57;;;5.83;;
6999;SDS011;3540;53.242;10.408;2023-11-22T04:44:48;8.43;;;5.63;;
6999;SDS011;3540;53.242;10.408;2023-11-22T04:47:14;7.97;;;5.77;;
6999;SDS011;3540;53.242;10.408;2023-11-22T04:49:40;9.57;;;5.60;;
6999;SDS011;3540;53.242;10.408;2023-11-22T04:52:05;10.20;;;6.37;;
6999;SDS011;3540;53.242;10.408;2023-11-22T04:54:31;9.67;;;5.67;;
6999;SDS011;3540;53.242;10.408;2023-11-22T04:56:58;7.00;;;4.80;;
6999;SDS011;3540;53.242;10.408;2023-11-22T04:59:23;7.97;;;5.50;;
6999;SDS011;3540;53.242;10.408;2023-11-22T05:01:49;7.47;;;5.30;;
6999;SDS011;3540;53.242;10.408;2023-11-22T05:04:14;8.53;;;5.10;;
6999;SDS011;3540;53.242;10.408;2023-11-22T05:06:40;7.27;;;5.20;;
6999;SDS011;3540;53.242;10.408;2023-11-22T05:09:06;7.40;;;5.10;;
6999;SDS011;3540;53.242;10.408;2023-11-22T05:11:31;8.37;;;5.27;;
6999;SDS011;3540;53.242;10.408;2023-11-22T05:13:57;10.07;;;5.20;;
6999;SDS011;3540;53.242;10.408;2023-11-22T05:16:23;7.07;;;5.07;;
6999;SDS011;3540;53.242;10.408;2023-11-22T05:18:49;8.53;;;5.07;;
6999;SDS011;3540;53.242;10.408;2023-11-22T05:21:15;11.17;;;5.50;;
6999;SDS011;3540;53.242;10.408;2023-11-22T05:23:41;9.83;;;5.63;;
6999;SDS011;3540;53.242;10.408;2023-11-22T05:26:06;9.03;;;6.33;;
6999;SDS011;3540;53.242;10.408;2023-11-22T05:28:33;9.83;;;6.67;;
6999;SDS011;3540;53.242;10.408;2023-11-22T05:30:59;12.13;;;7.23;;
6999;SDS011;3540;53.242;10.408;2023-11-22T05:33:25;12.07;;;8.00;;
6999;SDS011;3540;53.242;10.408;2023-11-22T05:35:50;13.53;;;7.07;;
6999;SDS011;3540;53.242;10.408;2023-11-22T05:38:16;13.40;;;7.67;;
6999;SDS011;3540;53.242;10.408;2023-11-22T05:40:41;11.73;;;7.43;;
6999;SDS011;3540;53.242;10.408;2023-11-22T05:43:08;12.57;;;7.00;;
6999;SDS011;3540;53.242;10.408;2023-11-22T05:45:34;10.93;;;7.17;;
6999;SDS011;3540;53.242;10.408;2023-11-22T05:48:00;13.97;;;7.17;;
6999;SDS011;3540;53.242;10.408;2023-11-22T05:50:26;10.90;;;7.37;;
6999;SDS011;3540;53.242;10.408;2023-11-22T05:52:52;13.00;;;7.13;;
6999;SDS011;3540;53.242;10.408;2023-11-22T05:55:17;10.10;;;6.47;;
6999;SDS011;3540;53.242;10.408;2023-11-22T05:57:43;9.67;;;6.47;;
6999;SDS011;3540;53.242;10.408;2023-11-22T06:00:09;13.70;;;7.70;;
6999;SDS011;3540;53.242;10.408;2023-11-22T06:02:36;12.67;;;7.00;;
6999;SDS011;3540;53.242;10.408;2023-11-22T06:05:03;12.60;;;7.00;;
6999;SDS011;3540;53.242;10.408;2023-11-22T06:07:30;12.10;;;6.90;;
6999;SDS011;3540;53.242;10.408;2023-11-22T06:09:56;13.23;;;7.23;;
6999;SDS011;3540;53.242;10.408;2023-11-22T06:12:22;11.47;;;7.27;;
6999;SDS011;3540;53.242;10.408;2023-11-22T06:14:48;11.10;;;7.27;;
6999;SDS011;3540;53.242;10.408;2023-11-22T06:17:13;16.10;;;7.43;;
6999;SDS011;3540;53.242;10.408;2023-11-22T06:19:39;14.07;;;7.43;;
6999;SDS011;3540;53.242;10.408;2023-11-22T06:22:25;15.20;;;9.20;;
6999;SDS011;3540;53.242;10.408;2023-11-22T06:24:51;18.07;;;9.23;;
6999;SDS011;3540;53.242;10.408;2023-11-22T06:27:17;15.83;;;7.77;;
6999;SDS011;3540;53.242;10.408;2023-11-22T06:29:43;12.87;;;8.43;;
6999;SDS011;3540;53.242;10.408;2023-11-22T06:32:09;13.97;;;9.20;;
6999;SDS011;3540;53.242;10.408;2023-11-22T06:34:35;13.77;;;9.30;;
6999;SDS011;3540;53.242;10.408;2023-11-22T06:37:01;12.37;;;8.43;;
6999;SDS011;3540;53.242;10.408;2023-11-22T06:39:27;11.80;;;8.10;;
6999;SDS011;3540;53.242;10.408;2023-11-22T06:41:53;13.80;;;8.57;;
6999;SDS011;3540;53.242;10.408;2023-11-22T06:44:18;13.47;;;8.67;;
6999;SDS011;3540;53.242;10.408;2023-11-22T06:46:44;16.77;;;9.83;;
6999;SDS011;3540;53.242;10.408;2023-11-22T06:49:10;12.77;;;7.97;;
6999;SDS011;3540;53.242;10.408;2023-11-22T06:51:35;13.07;;;8.40;;
6999;SDS011;3540;53.242;10.408;2023-11-22T06:54:02;12.00;;;7.87;;
6999;SDS011;3540;53.242;10.408;2023-11-22T06:56:28;9.43;;;7.43;;
6999;SDS011;3540;53.242;10.408;2023-11-22T06:58:54;11.40;;;7.43;;
6999;SDS011;3540;53.242;10.408;2023-11-22T07:01:22;13.83;;;7.07;;
6999;SDS011;3540;53.242;10.408;2023-11-22T07:03:50;11.90;;;6.77;;
6999;SDS011;3540;53.242;10.408;2023-11-22T07:06:17;13.47;;;7.47;;
6999;SDS011;3540;53.242;10.408;2023-11-22T07:08:46;10.93;;;6.93;;
6999;SDS011;3540;53.242;10.408;2023-11-22T07:11:12;11.67;;;7.40;;
6999;SDS011;3540;53.242;10.408;2023-11-22T07:13:38;10.87;;;6.70;;
6999;SDS011;3540;53.242;10.408;2023-11-22T07:16:05;10.53;;;7.30;;
6999;SDS011;3540;53.242;10.408;2023-11-22T07:18:32;14.23;;;7.40;;
6999;SDS011;3540;53.242;10.408;2023-11-22T07:20:58;14.43;;;7.50;;
6999;SDS011;3540;53.242;10.408;2023-11-22T07:23:24;13.07;;;7.37;;
6999;SDS011;3540;53.242;10.408;2023-11-22T07:25:54;16.40;;;7.83;;
6999;SDS011;3540;53.242;10.408;2023-11-22T07:28:20;11.67;;;7.80;;
6999;SDS011;3540;53.242;10.408;2023-11-22T07:30:45;16.20;;;8.93;;
6999;SDS011;3540;53.242;10.408;2023-11-22T07:33:13;14.93;;;9.03;;
6999;SDS011;3540;53.242;10.408;2023-11-22T07:35:40;14.47;;;8.73;;
6999;SDS011;3540;53.242;10.408;2023-11-22T07:38:06;17.37;;;9.03;;
6999;SDS011;3540;53.242;10.408;2023-11-22T07:40:34;13.73;;;8.67;;
6999;SDS011;3540;53.242;10.408;2023-11-22T07:43:00;17.50;;;9.20;;
6999;SDS011;3540;53.242;10.408;2023-11-22T07:45:28;13.77;;;9.17;;
6999;SDS011;3540;53.242;10.408;2023-11-22T07:47:54;14.10;;;9.37;;
6999;SDS011;3540;53.242;10.408;2023-11-22T07:50:23;15.70;;;9.33;;
6999;SDS011;3540;53.242;10.408;2023-11-22T07:52:49;18.50;;;9.90;;
6999;SDS011;3540;53.242;10.408;2023-11-22T07:55:15;16.47;;;9.90;;
6999;SDS011;3540;53.242;10.408;2023-11-22T07:57:43;17.47;;;10.23;;
6999;SDS011;3540;53.242;10.408;2023-11-22T08:00:10;15.30;;;10.20;;
6999;SDS011;3540;53.242;10.408;2023-11-22T08:02:36;15.40;;;9.40;;
6999;SDS011;3540;53.242;10.408;2023-11-22T08:05:05;19.50;;;9.90;;
6999;SDS011;3540;53.242;10.408;2023-11-22T08:07:34;16.97;;;9.67;;
6999;SDS011;3540;53.242;10.408;2023-11-22T08:10:03;13.53;;;8.63;;
6999;SDS011;3540;53.242;10.408;2023-11-22T08:12:34;16.63;;;9.53;;
6999;SDS011;3540;53.242;10.408;2023-11-22T08:15:03;14.07;;;8.60;;
6999;SDS011;3540;53.242;10.408;2023-11-22T08:17:29;20.33;;;9.50;;
6999;SDS011;3540;53.242;10.408;2023-11-22T08:19:57;17.00;;;10.33;;
6999;SDS011;3540;53.242;10.408;2023-11-22T08:22:24;19.43;;;10.67;;
6999;SDS011;3540;53.242;10.408;2023-11-22T08:24:53;17.87;;;10.30;;
6999;SDS011;3540;53.242;10.408;2023-11-22T08:27:20;14.40;;;9.50;;
6999;SDS011;3540;53.242;10.408;2023-11-22T08:29:46;17.40;;;9.97;;
6999;SDS011;3540;53.242;10.408;2023-11-22T08:32:13;20.93;;;10.17;;
6999;SDS011;3540;53.242;10.408;2023-11-22T08:34:38;15.00;;;9.83;;
6999;SDS011;3540;53.242;10.408;2023-11-22T08:37:04;18.13;;;10.17;;
6999;SDS011;3540;53.242;10.408;2023-11-22T08:39:30;21.43;;;11.87;;
6999;SDS011;3540;53.242;10.408;2023-11-22T08:41:55;17.27;;;10.70;;
6999;SDS011;3540;53.242;10.408;2023-11-22T08:44:21;15.83;;;10.17;;
6999;SDS011;3540;53.242;10.408;2023-11-22T08:46:47;17.00;;;10.73;;
6999;SDS011;3540;53.242;10.408;2023-11-22T08:49:14;15.53;;;9.53;;
6999;SDS011;3540;53.242;10.408;2023-11-22T08:51:40;14.90;;;9.60;;
6999;SDS011;3540;53.242;10.408;2023-11-22T08:54:07;17.27;;;10.37;;
6999;SDS011;3540;53.242;10.408;2023-11-22T08:56:33;17.83;;;10.20;;
6999;SDS011;3540;53.242;10.408;2023-11-22T08:59:00;18.10;;;9.67;;
6999;SDS011;3540;53.242;10.408;2023-11-22T09:01:25;12.67;;;8.43;;
6999;SDS011;3540;53.242;10.408;2023-11-22T09:03:51;13.97;;;8.90;;
6999;SDS011;3540;53.242;10.408;2023-11-22T09:06:17;14.70;;;9.20;;
6999;SDS011;3540;53.242;10.408;2023-11-22T09:08:43;15.13;;;9.77;;
6999;SDS011;3540;53.242;10.408;2023-11-22T09:11:11;16.70;;;10.60;;
6999;SDS011;3540;53.242;10.408;2023-11-22T09:13:37;18.40;;;10.83;;
6999;SDS011;3540;53.242;10.408;2023-11-22T09:16:03;17.27;;;11.80;;
6999;SDS011;3540;53.242;10.408;2023-11-22T09:18:30;17.33;;;11.17;;
6999;SDS011;3540;53.242;10.408;2023-11-22T09:20:56;19.20;;;10.83;;
6999;SDS011;3540;53.242;10.408;2023-11-22T09:23:22;16.77;;;10.13;;
6999;SDS011;3540;53.242;10.408;2023-11-22T09:25:47;15.43;;;10.17;;
6999;SDS011;3540;53.242;10.408;2023-11-22T09:28:14;16.63;;;10.40;;
6999;SDS011;3540;53.242;10.408;2023-11-22T09:30:41;15.30;;;9.83;;
6999;SDS011;3540;53.242;10.408;2023-11-22T09:33:12;15.97;;;9.73;;
6999;SDS011;3540;53.242;10.408;2023-11-22T09:35:40;16.80;;;9.87;;
6999;SDS011;3540;53.242;10.408;2023-11-22T09:38:07;15.17;;;9.23;;
6999;SDS011;3540;53.242;10.408;2023-11-22T09:40:41;16.17;;;8.63;;
6999;SDS011;3540;53.242;10.408;2023-11-22T09:43:08;14.20;;;8.60;;
6999;SDS011;3540;53.242;10.408;2023-11-22T09:45:34;14.40;;;9.13;;
6999;SDS011;3540;53.242;10.408;2023-11-22T09:48:02;13.47;;;7.87;;
6999;SDS011;3540;53.242;10.408;2023-11-22T09:50:40;13.97;;;8.30;;
6999;SDS011;3540;53.242;10.408;2023-11-22T09:55:58;11.53;;;8.17;;
6999;SDS011;3540;53.242;10.408;2023-11-22T09:58:26;10.60;;;7.50;;
6999;SDS011;3540;53.242;10.408;2023-11-22T10:00:59;10.90;;;7.50;;
6999;SDS011;3540;53.242;10.408;2023-11-22T10:03:25;13.13;;;7.33;;
6999;SDS011;3540;53.242;10.408;2023-11-22T10:05:52;14.57;;;7.47;;
6999;SDS011;3540;53.242;10.408;2023-11-22T10:08:18;16.27;;;8.70;;
6999;SDS011;3540;53.242;10.408;2023-11-22T10:10:46;13.67;;;7.73;;
6999;SDS011;3540;53.242;10.408;2023-11-22T10:13:16;13.70;;;7.50;;
6999;SDS011;3540;53.242;10.408;2023-11-22T10:15:45;13.63;;;7.13;;
6999;SDS011;3540;53.242;10.408;2023-11-22T10:18:20;11.10;;;7.13;;
6999;SDS011;3540;53.242;10.408;2023-11-22T10:20:47;10.17;;;7.20;;
6999;SDS011;3540;53.242;10.408;2023-11-22T10:23:17;8.33;;;6.43;;
6999;SDS011;3540;53.242;10.408;2023-11-22T10:25:51;8.70;;;6.13;;
6999;SDS011;3540;53.242;10.408;2023-11-22T10:30:48;10.23;;;5.63;;
6999;SDS011;3540;53.242;10.408;2023-11-22T10:33:17;8.20;;;5.57;;
6999;SDS011;3540;53.242;10.408;2023-11-22T10:35:48;7.83;;;5.67;;
6999;SDS011;3540;53.242;10.408;2023-11-22T10:38:15;8.93;;;5.73;;
6999;SDS011;3540;53.242;10.408;2023-11-22T10:40:41;12.33;;;5.20;;
6999;SDS011;3540;53.242;10.408;2023-11-22T10:43:09;8.93;;;4.90;;
6999;SDS011;3540;53.242;10.408;2023-11-22T10:45:37;7.10;;;5.47;;
6999;SDS011;3540;53.242;10.408;2023-11-22T10:48:03;8.37;;;5.30;;
6999;SDS011;3540;53.242;10.408;2023-11-22T10:50:30;7.97;;;5.30;;
6999;SDS011;3540;53.242;10.408;2023-11-22T10:52:56;6.20;;;4.97;;
6999;SDS011;3540;53.242;10.408;2023-11-22T10:55:28;7.23;;;4.60;;
6999;SDS011;3540;53.242;10.408;2023-11-22T10:58:00;6.73;;;5.10;;
6999;SDS011;3540;53.242;10.408;2023-11-22T11:00:27;6.40;;;4.43;;
6999;SDS011;3540;53.242;10.408;2023-11-22T11:02:59;6.73;;;4.77;;
6999;SDS011;3540;53.242;10.408;2023-11-22T11:05:32;6.17;;;4.40;;
6999;SDS011;3540;53.242;10.408;2023-11-22T11:08:00;6.93;;;3.83;;
6999;SDS011;3540;53.242;10.408;2023-11-22T11:10:38;10.27;;;4.30;;
6999;SDS011;3540;53.242;10.408;2023-11-22T11:13:07;6.43;;;4.07;;
6999;SDS011;3540;53.242;10.408;2023-11-22T11:15:37;5.33;;;3.67;;
6999;SDS011;3540;53.242;10.408;2023-11-22T11:18:07;9.63;;;3.87;;
6999;SDS011;3540;53.242;10.408;2023-11-22T11:20:53;5.47;;;3.80;;
6999;SDS011;3540;53.242;10.408;2023-11-22T11:23:21;5.30;;;3.57;;
6999;SDS011;3540;53.242;10.408;2023-11-22T11:25:49;6.20;;;3.53;;
6999;SDS011;3540;53.242;10.408;2023-11-22T11:28:17;4.70;;;3.47;;
6999;SDS011;3540;53.242;10.408;2023-11-22T11:30:47;5.13;;;3.60;;
6999;SDS011;3540;53.242;10.408;2023-11-22T11:33:14;6.40;;;3.70;;
6999;SDS011;3540;53.242;10.408;2023-11-22T11:35:43;7.27;;;4.07;;
6999;SDS011;3540;53.242;10.408;2023-11-22T11:38:12;6.93;;;4.03;;
6999;SDS011;3540;53.242;10.408;2023-11-22T11:40:42;5.50;;;4.00;;
6999;SDS011;3540;53.242;10.408;2023-11-22T11:43:09;4.53;;;3.57;;
6999;SDS011;3540;53.242;10.408;2023-11-22T11:45:37;7.30;;;3.67;;
6999;SDS011;3540;53.242;10.408;2023-11-22T11:48:16;5.73;;;3.80;;
6999;SDS011;3540;53.242;10.408;2023-11-22T11:50:42;7.53;;;4.30;;
6999;SDS011;3540;53.242;10.408;2023-11-22T11:53:08;5.73;;;3.63;;
6999;SDS011;3540;53.242;10.408;2023-11-22T11:55:35;6.20;;;3.43;;
6999;SDS011;3540;53.242;10.408;2023-11-22T11:58:05;5.03;;;3.87;;
6999;SDS011;3540;53.242;10.408;2023-11-22T12:00:37;5.43;;;3.43;;
6999;SDS011;3540;53.242;10.408;2023-11-22T12:03:06;6.10;;;3.40;;
6999;SDS011;3540;53.242;10.408;2023-11-22T12:05:34;6.67;;;3.87;;
6999;SDS011;3540;53.242;10.408;2023-11-22T12:08:03;5.77;;;3.50;;
6999;SDS011;3540;53.242;10.408;2023-11-22T12:10:30;6.20;;;3.50;;
6999;SDS011;3540;53.242;10.408;2023-11-22T12:12:56;6.23;;;4.17;;
6999;SDS011;3540;53.242;10.408;2023-11-22T12:15:23;5.47;;;3.73;;
6999;SDS011;3540;53.242;10.408;2023-11-22T12:17:50;5.97;;;3.57;;
6999;SDS011;3540;53.242;10.408;2023-11-22T12:20:17;4.57;;;3.50;;
6999;SDS011;3540;53.242;10.408;2023-11-22T12:22:46;4.63;;;3.43;;
6999;SDS011;3540;53.242;10.408;2023-11-22T12:25:13;7.13;;;3.60;;
6999;SDS011;3540;53.242;10.408;2023-11-22T12:27:42;5.30;;;3.67;;
6999;SDS011;3540;53.242;10.408;2023-11-22T12:30:28;6.07;;;3.83;;
6999;SDS011;3540;53.242;10.408;2023-11-22T12:33:06;4.87;;;3.57;;
6999;SDS011;3540;53.242;10.408;2023-11-22T12:35:34;4.90;;;3.20;;
6999;SDS011;3540;53.242;10.408;2023-11-22T12:38:01;5.50;;;3.57;;
6999;SDS011;3540;53.242;10.408;2023-11-22T12:40:28;10.80;;;3.90;;
6999;SDS011;3540;53.242;10.408;2023-11-22T12:42:58;5.37;;;3.80;;
6999;SDS011;3540;53.242;10.408;2023-11-22T12:45:24;8.87;;;3.97;;
6999;SDS011;3540;53.242;10.408;2023-11-22T12:47:53;4.93;;;3.50;;
6999;SDS011;3540;53.242;10.408;2023-11-22T12:53:15;8.93;;;3.80;;
6999;SDS011;3540;53.242;10.408;2023-11-22T12:55:44;6.23;;;4.10;;
6999;SDS011;3540;53.242;10.408;2023-11-22T12:58:13;8.90;;;4.07;;
6999;SDS011;3540;53.242;10.408;2023-11-22T13:00:46;7.77;;;3.73;;
6999;SDS011;3540;53.242;10.408;2023-11-22T13:03:13;7.67;;;4.00;;
6999;SDS011;3540;53.242;10.408;2023-11-22T13:05:40;6.30;;;3.83;;
6999;SDS011;3540;53.242;10.408;2023-11-22T13:08:09;4.80;;;3.47;;
6999;SDS011;3540;53.242;10.408;2023-11-22T13:10:47;6.50;;;3.20;;
6999;SDS011;3540;53.242;10.408;2023-11-22T13:13:19;3.93;;;2.87;;
6999;SDS011;3540;53.242;10.408;2023-11-22T13:15:48;4.50;;;3.13;;
6999;SDS011;3540;53.242;10.408;2023-11-22T13:18:14;4.23;;;2.97;;
6999;SDS011;3540;53.242;10.408;2023-11-22T13:20:41;3.57;;;2.63;;
6999;SDS011;3540;53.242;10.408;2023-11-22T13:23:07;3.00;;;2.70;;
6999;SDS011;3540;53.242;10.408;2023-11-22T13:25:33;6.10;;;2.80;;
6999;SDS011;3540;53.242;10.408;2023-11-22T13:27:59;3.10;;;2.47;;
6999;SDS011;3540;53.242;10.408;2023-11-22T13:30:25;2.80;;;2.40;;
6999;SDS011;3540;53.242;10.408;2023-11-22T13:32:52;3.30;;;2.80;;
6999;SDS011;3540;53.242;10.408;2023-11-22T13:35:19;5.20;;;3.10;;
6999;SDS011;3540;53.242;10.408;2023-11-22T13:37:45;4.80;;;2.97;;
6999;SDS011;3540;53.242;10.408;2023-11-22T13:40:13;3.07;;;2.67;;
6999;SDS011;3540;53.242;10.408;2023-11-22T13:42:44;4.13;;;2.97;;
6999;SDS011;3540;53.242;10.408;2023-11-22T13:45:11;4.83;;;3.00;;
6999;SDS011;3540;53.242;10.408;2023-11-22T13:47:45;4.47;;;2.80;;
6999;SDS011;3540;53.242;10.408;2023-11-22T13:50:12;4.73;;;3.03;;
6999;SDS011;3540;53.242;10.408;2023-11-22T13:52:43;3.97;;;2.80;;
6999;SDS011;3540;53.242;10.408;2023-11-22T13:55:13;4.47;;;2.57;;
6999;SDS011;3540;53.242;10.408;2023-11-22T13:57:39;3.50;;;2.53;;
6999;SDS011;3540;53.242;10.408;2023-11-22T14:00:05;3.20;;;2.40;;
6999;SDS011;3540;53.242;10.408;2023-11-22T14:02:39;5.40;;;2.53;;
6999;SDS011;3540;53.242;10.408;2023-11-22T14:05:06;3.23;;;2.50;;
6999;SDS011;3540;53.242;10.408;2023-11-22T14:07:35;5.00;;;2.60;;
6999;SDS011;3540;53.242;10.408;2023-11-22T14:10:01;2.83;;;2.30;;
6999;SDS011;3540;53.242;10.408;2023-11-22T14:12:28;4.60;;;2.50;;
6999;SDS011;3540;53.242;10.408;2023-11-22T14:14:55;5.30;;;2.47;;
6999;SDS011;3540;53.242;10.408;2023-11-22T14:17:21;7.77;;;2.60;;
6999;SDS011;3540;53.242;10.408;2023-11-22T14:19:46;7.67;;;2.43;;
6999;SDS011;3540;53.242;10.408;2023-11-22T14:22:12;4.07;;;2.43;;
6999;SDS011;3540;53.242;10.408;2023-11-22T14:24:42;2.87;;;2.33;;
6999;SDS011;3540;53.242;10.408;2023-11-22T14:27:09;4.33;;;2.53;;
6999;SDS011;3540;53.242;10.408;2023-11-22T14:29:36;3.97;;;2.70;;
6999;SDS011;3540;53.242;10.408;2023-11-22T14:32:02;5.23;;;3.07;;
6999;SDS011;3540;53.242;10.408;2023-11-22T14:34:27;7.60;;;4.37;;
6999;SDS011;3540;53.242;10.408;2023-11-22T14:36:53;6.00;;;4.17;;
6999;SDS011;3540;53.242;10.408;2023-11-22T14:39:19;5.83;;;3.20;;
6999;SDS011;3540;53.242;10.408;2023-11-22T14:41:46;4.63;;;2.70;;
6999;SDS011;3540;53.242;10.408;2023-11-22T14:44:11;2.40;;;2.20;;
6999;SDS011;3540;53.242;10.408;2023-11-22T14:46:37;4.03;;;3.10;;
6999;SDS011;3540;53.242;10.408;2023-11-22T14:49:03;6.37;;;3.23;;
6999;SDS011;3540;53.242;10.408;2023-11-22T14:51:29;6.23;;;2.90;;
6999;SDS011;3540;53.242;10.408;2023-11-22T14:53:55;3.67;;;2.00;;
6999;SDS011;3540;53.242;10.408;2023-11-22T14:56:21;4.40;;;2.50;;
6999;SDS011;3540;53.242;10.408;2023-11-22T14:58:47;3.40;;;2.33;;
6999;SDS011;3540;53.242;10.408;2023-11-22T15:01:19;4.70;;;2.93;;
6999;SDS011;3540;53.242;10.408;2023-11-22T15:03:45;4.83;;;2.40;;